Terminal Aerodrome Forecast
Issued by NWS

Home | Current Version | Previous Version | Text Only | Print | Product List | Glossary On
Versions: 1 2 3 4 5 6 7 8 9 10 11 12 13 14 15 16 17 18 19
533
FTUS41 KPBZ 101506 AAA
TAFAGC
TAF AMD
KAGC 101506Z 1015/1112 25015KT 5SM -SHSN OVC025
     FM102000 26010KT 1 1/2SM -SHSN OVC012
     FM110100 27010G15KT 4SM -SHSN OVC012=

USA.gov is the U.S. government's official web portal to all federal, state and local government web resources and services.